Weather History for Alexander City, AL

Change the Weather History Date:

Wednesday, February 27, 2013

  Actual Average (KAUO) Record (KAUO)
Temperature  
Mean Temperature 50 °F -  
Max Temperature 62 °F - 81 °F (1977)
Min Temperature 39 °F - 14 °F (1963)
Degree Days  
Heating Degree Days 14    
Month to date heating degree days  
Since 1 July heating degree days  
Moisture  
Dew Point 33 °F    
Average Humidity 50    
Maximum Humidity 81    
Minimum Humidity 28    
Precipitation  
Precipitation 0.00 in - 4.40 in (1997)
Month to date precipitation  
Year to date precipitation  
Sea Level Pressure  
Sea Level Pressure 29.90 in    
Wind  
Wind Speed 8 mph (West)    
Max Wind Speed 16 mph    
Max Gust Speed 25 mph    
Visibility 10 miles    
Events      
T = Trace of Precipitation, MM = Missing Value Source: NWS Daily Summary

Daily Weather History Graph

Daily Weather History Graph

Search for Another Location

Airport:

Trip Planner

Search our weather history database for the weather conditions in past years. The results will help you decide how hot, cold, wet, or windy it might be!

Date:

Astronomy

Feb. 27, 2013 Rise Set
Actual Time 6:13 AM CST 5:39 PM CST
Civil Twilight 5:49 AM CST 6:04 PM CST
Nautical Twilight 5:20 AM CST 6:33 PM CST
Astronomical Twilight 4:51 AM CST 7:01 PM CST
Moon 7:49 PM CST (2/27) 6:57 AM CST (2/27)
Length of Visible Light 12h 15m
Length of Day
11h 25m
Waning Gibbous, 96% of the Moon is Illuminated
Feb 27
Waning Gibbous
Mar 4
Last Quarter
Mar 11
New
Mar 19
First Quarter
Mar 27
Full

Hourly Weather History & Observations

Time (CST) Temp. Windchill Dew Point Humidity Pressure Visibility Wind Dir Wind Speed Gust Speed Precip Events Conditions
12:15 AM 49.6 °F - 35.4 °F 58% 29.87 in 10.0 mi West 9.2 mph 17.3 mph N/A   Overcast
12:35 AM 49.6 °F - 35.2 °F 58% 29.87 in 10.0 mi West 8.1 mph 17.3 mph N/A   Overcast
12:55 AM 49.6 °F - 34.9 °F 57% 29.87 in 10.0 mi West 9.2 mph - N/A   Overcast
1:15 AM 49.6 °F - 35.1 °F 57% 29.87 in 10.0 mi West 9.2 mph - N/A   Overcast
1:35 AM 49.6 °F - 34.7 °F 56% 29.88 in 10.0 mi West 9.2 mph 19.6 mph N/A   Overcast
1:55 AM 49.6 °F - 34.7 °F 56% 29.88 in 10.0 mi West 10.4 mph 18.4 mph N/A   Overcast
2:15 AM 48.4 °F - 33.6 °F 57% 29.87 in 10.0 mi West 10.4 mph - N/A   Overcast
2:35 AM 48.7 °F - 33.8 °F 56% 29.88 in 10.0 mi West 9.2 mph - N/A   Overcast
2:55 AM 47.3 °F - 32.7 °F 57% 29.87 in 10.0 mi West 9.2 mph 17.3 mph N/A   Overcast
3:15 AM 47.3 °F - 33.1 °F 58% 29.88 in 10.0 mi West 9.2 mph - N/A   Overcast
3:35 AM 47.3 °F - 33.3 °F 58% 29.88 in 10.0 mi WNW 8.1 mph - N/A   Overcast
3:55 AM 47.3 °F - 33.8 °F 59% 29.88 in 10.0 mi WNW 6.9 mph - N/A   Overcast
4:15 AM 47.3 °F - 34.0 °F 60% 29.89 in 10.0 mi West 6.9 mph - N/A   Scattered Clouds
4:35 AM 44.6 °F 43.1 °F 32.5 °F 63% 29.89 in 10.0 mi West 3.5 mph - N/A   Clear
4:55 AM 43.9 °F - 32.4 °F 64% 29.89 in 10.0 mi Calm Calm - N/A   Clear
5:15 AM 42.1 °F 39.2 °F 33.3 °F 71% 29.90 in 10.0 mi SW 4.6 mph - N/A   Clear
5:35 AM 41.2 °F 39.2 °F 33.3 °F 73% 29.89 in 10.0 mi SW 3.5 mph - N/A   Clear
5:55 AM 39.6 °F 37.4 °F 33.3 °F 78% 29.91 in 10.0 mi SW 3.5 mph - N/A   Clear
6:15 AM 39.6 °F - 33.8 °F 80% 29.91 in 10.0 mi Calm Calm - N/A   Clear
6:55 AM 39.6 °F - 34.2 °F 81% 29.91 in 10.0 mi Calm Calm - N/A   Clear
7:15 AM 41.9 °F 40.0 °F 34.9 °F 76% 29.91 in 10.0 mi West 3.5 mph - N/A   Clear
7:35 AM 42.8 °F 40.1 °F 34.7 °F 73% 29.92 in 10.0 mi WSW 4.6 mph - N/A   Clear
7:55 AM 46.2 °F 43.3 °F 36.5 °F 69% 29.93 in 10.0 mi WSW 5.8 mph - N/A   Clear
8:15 AM 49.6 °F - 37.9 °F 64% 29.94 in 10.0 mi West 5.8 mph - N/A   Clear
8:35 AM 49.6 °F - 35.2 °F 58% 29.94 in 10.0 mi West 10.4 mph - N/A   Clear
9:15 AM 52.0 °F - 35.2 °F 53% 29.94 in 10.0 mi WNW 8.1 mph 17.3 mph N/A   Clear
9:35 AM 54.7 °F - 35.4 °F 48% 29.94 in 10.0 mi NW 11.5 mph 19.6 mph N/A   Clear
9:55 AM 54.7 °F - 34.3 °F 46% 29.94 in 10.0 mi West 10.4 mph - N/A   Clear
10:15 AM 54.7 °F - 32.7 °F 43% 29.95 in 10.0 mi West 11.5 mph 16.1 mph N/A   Clear
10:55 AM 56.3 °F - 33.6 °F 42% 29.95 in 10.0 mi WNW 10.4 mph 16.1 mph N/A   Clear
11:15 AM 57.2 °F - 32.7 °F 40% 29.95 in 10.0 mi West 6.9 mph - N/A   Clear
11:35 AM 58.8 °F - 32.9 °F 38% 29.94 in 10.0 mi West 10.4 mph - N/A   Clear
11:55 AM 57.4 °F - 31.8 °F 38% 29.93 in 10.0 mi West 11.5 mph 17.3 mph N/A   Clear
12:15 PM 59.9 °F - 33.1 °F 36% 29.92 in 10.0 mi SW 8.1 mph 18.4 mph N/A   Clear
12:35 PM 59.9 °F - 32.0 °F 35% 29.91 in 10.0 mi West 11.5 mph 17.3 mph N/A   Clear
12:55 PM 61.0 °F - 31.8 °F 33% 29.90 in 10.0 mi West 13.8 mph 18.4 mph N/A   Clear
1:15 PM 61.3 °F - 30.7 °F 32% 29.89 in 10.0 mi WSW 10.4 mph 23.0 mph N/A   Clear
1:35 PM 62.1 °F - 31.6 °F 32% 29.88 in 10.0 mi WSW 11.5 mph 16.1 mph N/A   Clear
1:55 PM 62.6 °F - 30.2 °F 30% 29.88 in 10.0 mi West 16.1 mph 23.0 mph N/A   Clear
2:15 PM 62.8 °F - 30.7 °F 30% 29.89 in 10.0 mi West 12.7 mph 18.4 mph N/A   Clear
2:35 PM 62.2 °F - 29.7 °F 29% 29.89 in 10.0 mi West 12.7 mph 21.9 mph N/A   Clear
2:55 PM 62.8 °F - 30.4 °F 30% 29.88 in 10.0 mi West 13.8 mph 23.0 mph N/A   Clear
3:15 PM 62.2 °F - 28.8 °F 28% 29.88 in 10.0 mi WSW 15.0 mph 21.9 mph N/A   Clear
3:35 PM 62.2 °F - 29.8 °F 29% 29.88 in 10.0 mi WSW 8.1 mph - N/A   Clear
3:55 PM 62.2 °F - 28.8 °F 28% 29.88 in 10.0 mi West 12.7 mph 25.3 mph N/A   Clear
4:15 PM 62.2 °F - 30.2 °F 30% 29.88 in 10.0 mi West 10.4 mph 18.4 mph N/A   Clear
4:35 PM 61.0 °F - 29.7 °F 31% 29.88 in 10.0 mi WSW 13.8 mph 20.7 mph N/A   Clear
4:55 PM 59.9 °F - 29.7 °F 32% 29.89 in 10.0 mi WSW 10.4 mph 17.3 mph N/A   Clear
5:15 PM 59.9 °F - 29.5 °F 32% 29.88 in 10.0 mi WSW 8.1 mph - N/A   Clear
5:35 PM 57.2 °F - 30.6 °F 36% 29.89 in 10.0 mi WSW 5.8 mph - N/A   Clear
5:55 PM 57.2 °F - 32.9 °F 40% 29.89 in 10.0 mi WSW 5.8 mph - N/A   Clear
6:15 PM 56.8 °F - 34.2 °F 42% 29.90 in 10.0 mi SW 5.8 mph - N/A   Clear
6:35 PM 54.7 °F - 33.8 °F 45% 29.91 in 10.0 mi WSW 4.6 mph - N/A   Clear
6:55 PM 54.7 °F - 35.1 °F 48% 29.91 in 10.0 mi WSW 3.5 mph - N/A   Clear
7:15 PM 54.7 °F - 37.2 °F 52% 29.92 in 10.0 mi SW 3.5 mph - N/A   Clear
7:35 PM 50.9 °F - 35.8 °F 56% 29.91 in 10.0 mi SW 3.5 mph - N/A   Scattered Clouds
8:15 PM 54.5 °F - 37.6 °F 53% 29.91 in 10.0 mi WSW 4.6 mph - N/A   Mostly Cloudy
8:35 PM 54.7 °F - 36.3 °F 50% 29.91 in 10.0 mi WSW 4.6 mph - N/A   Mostly Cloudy
8:55 PM 54.7 °F - 36.3 °F 50% 29.92 in 10.0 mi WSW 5.8 mph - N/A   Mostly Cloudy
9:15 PM 54.7 °F - 36.3 °F 50% 29.93 in 10.0 mi West 6.9 mph - N/A   Scattered Clouds
9:35 PM 54.7 °F - 35.4 °F 48% 29.93 in 10.0 mi West 9.2 mph - N/A   Clear
9:55 PM 54.3 °F - 35.8 °F 50% 29.94 in 10.0 mi West 3.5 mph - N/A   Clear
10:15 PM 52.2 °F - 35.4 °F 53% 29.94 in 10.0 mi NW 6.9 mph - N/A   Clear
10:35 PM 52.0 °F - 35.2 °F 53% 29.93 in 10.0 mi WNW 5.8 mph - N/A   Scattered Clouds
10:55 PM 49.6 °F - 34.0 °F 55% 29.94 in 10.0 mi NW 5.8 mph - N/A   Clear
11:15 PM 49.6 °F - 34.2 °F 55% 29.93 in 10.0 mi NW 8.1 mph - N/A   Clear
11:35 PM 49.6 °F - 32.5 °F 52% 29.93 in 10.0 mi NW 5.8 mph 9.2 mph N/A   Clear